createdAt,value
2023-03-19T00:00:11.703Z,12.2
2023-03-19T00:02:17.352Z,12.2
2023-03-19T00:04:11.711Z,12.2
2023-03-19T00:06:11.708Z,12.2
2023-03-19T00:08:11.690Z,12.1
2023-03-19T00:10:11.676Z,12.1
2023-03-19T00:12:11.688Z,12
2023-03-19T00:14:11.673Z,12
2023-03-19T00:16:11.754Z,12
2023-03-19T00:18:11.684Z,11.9
2023-03-19T00:20:11.846Z,11.8
2023-03-19T00:22:11.644Z,11.8
2023-03-19T00:24:11.632Z,11.8
2023-03-19T00:26:12.768Z,11.8
2023-03-19T00:28:11.672Z,11.7
2023-03-19T00:30:11.667Z,11.7
2023-03-19T00:32:11.634Z,11.6
2023-03-19T00:34:11.706Z,11.7
2023-03-19T00:36:11.691Z,11.6
2023-03-19T00:38:11.654Z,11.5
2023-03-19T00:40:11.672Z,11.4
2023-03-19T00:42:11.653Z,11.4
2023-03-19T00:44:13.330Z,11.5
2023-03-19T00:46:11.702Z,11.4
2023-03-19T00:48:11.605Z,11.3
2023-03-19T00:50:11.611Z,11.3
2023-03-19T00:52:11.689Z,11.3
2023-03-19T00:54:11.594Z,11.3
2023-03-19T00:56:11.613Z,11.2
2023-03-19T00:58:11.610Z,11.2
2023-03-19T01:00:11.634Z,11.2
2023-03-19T01:02:11.741Z,11.1
2023-03-19T01:04:11.724Z,11.2
2023-03-19T01:06:13.226Z,11.1
2023-03-19T01:08:12.055Z,11.1
2023-03-19T01:10:11.574Z,11.1
2023-03-19T01:12:11.606Z,11.1
2023-03-19T01:14:11.597Z,11.1
2023-03-19T01:16:11.713Z,11
2023-03-19T01:18:11.644Z,11
2023-03-19T01:20:11.734Z,11
2023-03-19T01:22:11.574Z,10.9
2023-03-19T01:24:11.568Z,11
2023-03-19T01:26:11.611Z,11
2023-03-19T01:28:11.602Z,11
2023-03-19T01:30:12.875Z,11
2023-03-19T01:32:11.576Z,10.9
2023-03-19T01:34:11.587Z,11.1
2023-03-19T01:36:11.583Z,11.1
2023-03-19T01:38:11.567Z,11
2023-03-19T01:40:11.531Z,11
2023-03-19T01:42:11.557Z,11
2023-03-19T01:44:11.566Z,11.2
2023-03-19T01:46:11.602Z,11.1
2023-03-19T01:48:11.558Z,11
2023-03-19T01:50:11.546Z,11
2023-03-19T01:52:11.550Z,11
2023-03-19T01:54:11.583Z,11.1
2023-03-19T01:56:11.669Z,11.2
2023-03-19T01:58:11.538Z,11.1
2023-03-19T02:00:11.581Z,11.2
2023-03-19T02:02:11.547Z,11.2
2023-03-19T02:04:11.598Z,11.3
2023-03-19T02:06:11.517Z,11.3
2023-03-19T02:08:11.532Z,11.3
2023-03-19T02:10:11.585Z,11.3
2023-03-19T02:12:11.527Z,11.3
2023-03-19T02:14:11.498Z,11.3
2023-03-19T02:16:11.534Z,11.3
2023-03-19T02:18:11.526Z,11.3
2023-03-19T02:20:11.547Z,11.4
2023-03-19T02:22:11.532Z,11.4
2023-03-19T02:24:11.516Z,11.5
2023-03-19T02:26:11.488Z,11.5
2023-03-19T02:28:11.516Z,11.5
2023-03-19T02:30:11.538Z,11.4
2023-03-19T02:32:11.474Z,11.4
2023-03-19T02:34:11.516Z,11.4
2023-03-19T02:36:11.550Z,11.4
2023-03-19T02:38:11.482Z,11.4
2023-03-19T02:40:11.484Z,11.4
2023-03-19T02:42:11.461Z,11.5
2023-03-19T02:44:11.463Z,11.5
2023-03-19T02:46:11.557Z,11.5
2023-03-19T02:48:11.471Z,11.5
2023-03-19T02:50:11.476Z,11.5
2023-03-19T02:52:11.478Z,11.4
2023-03-19T02:54:11.518Z,11.5
2023-03-19T02:56:11.519Z,11.5
2023-03-19T02:58:11.471Z,11.4
2023-03-19T03:00:11.448Z,11.4
2023-03-19T03:02:11.557Z,11.4
2023-03-19T03:04:11.456Z,11.5
2023-03-19T03:06:11.419Z,11.5
2023-03-19T03:08:11.461Z,11.5
2023-03-19T03:10:11.487Z,11.5
2023-03-19T03:12:11.450Z,11.4
2023-03-19T03:14:11.438Z,11.5
2023-03-19T03:16:11.523Z,11.4
2023-03-19T03:18:11.486Z,11.4
2023-03-19T03:20:11.539Z,11.4
2023-03-19T03:22:11.570Z,11.4
2023-03-19T03:24:11.439Z,11.4
2023-03-19T03:26:11.417Z,11.4
2023-03-19T03:28:11.466Z,11.3
2023-03-19T03:30:11.422Z,11.3
2023-03-19T03:32:11.423Z,11.3
2023-03-19T03:34:11.451Z,11.4
2023-03-19T03:36:11.439Z,11.4
2023-03-19T03:38:11.410Z,11.4
2023-03-19T03:40:11.447Z,11.4
2023-03-19T03:42:11.396Z,11.4
2023-03-19T03:44:11.405Z,11.5
2023-03-19T03:46:11.492Z,11.5
2023-03-19T03:48:11.425Z,11.5
2023-03-19T03:50:11.404Z,11.5
2023-03-19T03:52:11.454Z,11.5
2023-03-19T03:54:11.457Z,11.6
2023-03-19T03:56:11.521Z,11.5
2023-03-19T03:58:11.456Z,11.5
2023-03-19T04:00:11.544Z,11.5
2023-03-19T04:02:11.554Z,11.5
2023-03-19T04:04:11.508Z,11.5
2023-03-19T04:06:11.368Z,11.5
2023-03-19T04:08:11.377Z,11.5
2023-03-19T04:10:11.356Z,11.4
2023-03-19T04:12:11.385Z,11.3
2023-03-19T04:14:11.459Z,11.4
2023-03-19T04:16:11.414Z,11.3
2023-03-19T04:18:11.356Z,11.3
2023-03-19T04:20:11.364Z,11.3
2023-03-19T04:22:11.431Z,11.3
2023-03-19T04:24:11.520Z,11.3
2023-03-19T04:26:11.345Z,11.3
2023-03-19T04:28:11.353Z,11.3
2023-03-19T04:30:11.342Z,11.3
2023-03-19T04:32:11.360Z,11.3
2023-03-19T04:34:11.334Z,11.4
2023-03-19T04:36:11.356Z,11.3
2023-03-19T04:38:11.332Z,11.3
2023-03-19T04:40:11.376Z,11.3
2023-03-19T04:42:11.323Z,11.3
2023-03-19T04:44:11.311Z,11.3
2023-03-19T04:46:11.438Z,11.3
2023-03-19T04:48:11.366Z,11.3
2023-03-19T04:50:11.296Z,11.3
2023-03-19T04:52:11.310Z,11.2
2023-03-19T04:54:11.387Z,11.4
2023-03-19T04:56:11.321Z,11.3
2023-03-19T04:58:11.299Z,11.3
2023-03-19T05:00:11.290Z,11.3
2023-03-19T05:02:11.313Z,11.3
2023-03-19T05:04:11.399Z,11.4
2023-03-19T05:06:11.344Z,11.4
2023-03-19T05:08:11.297Z,11.4
2023-03-19T05:10:11.304Z,11.5
2023-03-19T05:12:11.294Z,11.6
2023-03-19T05:14:11.318Z,11.7
2023-03-19T05:16:11.338Z,11.7
2023-03-19T05:18:11.339Z,11.7
2023-03-19T05:20:11.278Z,11.6
2023-03-19T05:22:11.346Z,11.7
2023-03-19T05:24:11.270Z,11.9
2023-03-19T05:26:11.277Z,11.9
2023-03-19T05:28:11.275Z,11.8
2023-03-19T05:30:11.272Z,11.9
2023-03-19T05:32:11.326Z,11.7
2023-03-19T05:34:11.280Z,11.9
2023-03-19T05:36:11.265Z,11.8
2023-03-19T05:38:11.336Z,11.9
2023-03-19T05:40:11.297Z,11.8
2023-03-19T05:42:11.321Z,11.8
2023-03-19T05:44:11.263Z,11.9
2023-03-19T05:46:11.307Z,11.8
2023-03-19T05:48:11.278Z,11.7
2023-03-19T05:50:11.245Z,11.6
2023-03-19T05:52:11.281Z,11.5
2023-03-19T05:54:11.222Z,11.6
2023-03-19T05:56:11.260Z,11.6
2023-03-19T05:58:11.258Z,11.6
2023-03-19T06:00:11.226Z,11.5
2023-03-19T06:02:11.228Z,11.5
2023-03-19T06:04:11.260Z,11.6
2023-03-19T06:06:11.300Z,11.5
2023-03-19T06:08:11.223Z,11.5
2023-03-19T06:10:11.199Z,11.5
2023-03-19T06:12:11.253Z,11.5
2023-03-19T06:14:11.250Z,11.7
2023-03-19T06:16:11.314Z,11.7
2023-03-19T06:18:11.209Z,11.6
2023-03-19T06:20:11.200Z,11.6
2023-03-19T06:22:11.251Z,11.6
2023-03-19T06:24:11.215Z,11.7
2023-03-19T06:26:11.204Z,11.6
2023-03-19T06:28:11.192Z,11.7
2023-03-19T06:30:11.199Z,11.8
2023-03-19T06:32:11.220Z,11.7
2023-03-19T06:34:11.188Z,11.9
2023-03-19T06:36:11.205Z,11.9
2023-03-19T06:38:11.181Z,11.9
2023-03-19T06:40:11.254Z,11.9
2023-03-19T06:42:11.216Z,11.8
2023-03-19T06:44:11.153Z,11.9
2023-03-19T06:46:11.793Z,11.8
2023-03-19T06:48:11.167Z,11.8
2023-03-19T06:50:11.228Z,11.8
2023-03-19T06:52:11.171Z,11.8
2023-03-19T06:54:11.178Z,11.8
2023-03-19T06:56:11.168Z,11.8
2023-03-19T06:58:11.187Z,11.8
2023-03-19T07:00:11.190Z,11.8
2023-03-19T07:02:11.191Z,11.7
2023-03-19T07:04:11.184Z,11.8
2023-03-19T07:06:11.132Z,11.9
2023-03-19T07:08:11.180Z,11.9
2023-03-19T07:10:11.182Z,11.9
2023-03-19T07:12:11.128Z,11.9
2023-03-19T07:14:11.148Z,11.9
2023-03-19T07:16:11.195Z,11.9
2023-03-19T07:18:11.145Z,11.8
2023-03-19T07:20:11.138Z,11.8
2023-03-19T07:22:11.139Z,11.8
2023-03-19T07:24:11.199Z,12
2023-03-19T07:26:11.109Z,11.9
2023-03-19T07:28:11.109Z,11.8
2023-03-19T07:30:11.112Z,11.8
2023-03-19T07:32:11.143Z,11.8
2023-03-19T07:34:11.146Z,11.9
2023-03-19T07:36:11.107Z,11.9
2023-03-19T07:38:11.094Z,11.9
2023-03-19T07:40:11.102Z,11.8
2023-03-19T07:42:11.168Z,11.8
2023-03-19T07:44:11.115Z,11.8
2023-03-19T07:46:11.202Z,11.8
2023-03-19T07:48:11.108Z,11.7
2023-03-19T07:50:11.129Z,11.9
2023-03-19T07:52:11.142Z,11.9
2023-03-19T07:54:11.112Z,11.9
2023-03-19T07:56:11.082Z,12
2023-03-19T07:58:11.117Z,11.9
2023-03-19T08:00:11.150Z,11.8
2023-03-19T08:02:11.151Z,11.8
2023-03-19T08:04:11.129Z,11.8
2023-03-19T08:06:11.098Z,11.8
2023-03-19T08:08:11.150Z,11.8
2023-03-19T08:10:11.230Z,11.7
2023-03-19T08:12:11.110Z,11.8
2023-03-19T08:14:11.091Z,11.9
2023-03-19T08:16:11.224Z,11.8
2023-03-19T08:18:11.143Z,11.7
2023-03-19T08:20:11.073Z,11.7
2023-03-19T08:22:11.059Z,11.8
2023-03-19T08:24:11.093Z,11.8
2023-03-19T08:26:11.145Z,11.7
2023-03-19T08:28:11.085Z,11.8
2023-03-19T08:30:11.180Z,12
2023-03-19T08:32:11.161Z,11.9
2023-03-19T08:34:11.106Z,11.9
2023-03-19T08:36:11.138Z,11.8
2023-03-19T08:38:11.124Z,11.9
2023-03-19T08:40:11.043Z,11.9
2023-03-19T08:42:11.088Z,12
2023-03-19T08:44:11.042Z,11.9
2023-03-19T08:46:11.077Z,11.8
2023-03-19T08:48:10.998Z,11.9
2023-03-19T08:50:11.022Z,12
2023-03-19T08:52:11.063Z,12
2023-03-19T08:54:11.024Z,11.9
2023-03-19T08:56:11.009Z,11.7
2023-03-19T08:58:11.014Z,11.9
2023-03-19T09:00:11.726Z,11.7
2023-03-19T09:02:11.135Z,11.8
2023-03-19T09:04:11.001Z,11.7
2023-03-19T09:06:11.008Z,11.7
2023-03-19T09:08:10.986Z,11.6
2023-03-19T09:10:11.026Z,11.5
2023-03-19T09:12:11.004Z,11.4
2023-03-19T09:14:10.980Z,11.5
2023-03-19T09:16:11.028Z,11.6
2023-03-19T09:18:11.017Z,11.5
2023-03-19T09:20:10.966Z,11.5
2023-03-19T09:22:11.000Z,11.4
2023-03-19T09:24:10.982Z,11.5
2023-03-19T09:26:10.973Z,11.5
2023-03-19T09:28:11.036Z,11.5
2023-03-19T09:30:11.016Z,11.4
2023-03-19T09:32:10.982Z,11.3
2023-03-19T09:34:10.982Z,11.4
2023-03-19T09:36:11.082Z,11.3
2023-03-19T09:38:11.019Z,11.2
2023-03-19T09:40:11.018Z,11.2
2023-03-19T09:42:10.963Z,11.1
2023-03-19T09:44:11.002Z,11.3
2023-03-19T09:46:11.083Z,11.3
2023-03-19T09:48:11.040Z,11.2
2023-03-19T09:50:11.009Z,11.2
2023-03-19T09:52:10.938Z,11.2
2023-03-19T09:54:10.978Z,11.2
2023-03-19T09:56:10.925Z,11.3
2023-03-19T09:58:10.939Z,11.2
2023-03-19T10:00:13.123Z,11.2
2023-03-19T10:02:10.984Z,11.3
2023-03-19T10:04:10.950Z,11.2
2023-03-19T10:06:10.931Z,11.4
2023-03-19T10:08:11.566Z,11.4
2023-03-19T10:10:10.920Z,11.3
2023-03-19T10:12:10.956Z,11.3
2023-03-19T10:14:12.784Z,11.3
2023-03-19T10:16:10.950Z,11.2
2023-03-19T10:18:10.937Z,11.2
2023-03-19T10:20:11.022Z,11
2023-03-19T10:22:10.897Z,11
2023-03-19T10:24:10.895Z,11
2023-03-19T10:26:10.897Z,11.3
2023-03-19T10:28:10.923Z,11.1
2023-03-19T10:30:10.939Z,11
2023-03-19T10:32:10.913Z,10.9
2023-03-19T10:34:10.962Z,10.8
2023-03-19T10:36:10.952Z,10.8
2023-03-19T10:38:10.920Z,10.9
2023-03-19T10:40:10.903Z,10.8
2023-03-19T10:42:10.869Z,10.8
2023-03-19T10:44:10.908Z,10.6
2023-03-19T10:46:10.987Z,10.6
2023-03-19T10:48:10.882Z,10.7
2023-03-19T10:50:10.953Z,10.5
2023-03-19T10:52:10.892Z,10.5
2023-03-19T10:54:10.852Z,10.7
2023-03-19T10:56:10.919Z,10.7
2023-03-19T10:58:10.860Z,10.5
2023-03-19T11:00:12.747Z,10.6
2023-03-19T11:02:10.848Z,10.7
2023-03-19T11:04:10.962Z,10.6
2023-03-19T11:06:10.858Z,10.7
2023-03-19T11:08:10.844Z,10.6
2023-03-19T11:10:10.824Z,10.6
2023-03-19T11:12:10.831Z,10.4
2023-03-19T11:14:10.879Z,10.4
2023-03-19T11:16:10.871Z,10.3
2023-03-19T11:18:10.829Z,10.3
2023-03-19T11:20:10.859Z,10.1
2023-03-19T11:22:10.870Z,10.1
2023-03-19T11:24:10.823Z,10
2023-03-19T11:26:10.842Z,10.2
2023-03-19T11:28:10.813Z,10.2
2023-03-19T11:30:10.862Z,10.3
2023-03-19T11:32:20.969Z,10.1
2023-03-19T11:34:10.787Z,10
2023-03-19T11:36:10.860Z,10.1
2023-03-19T11:38:10.808Z,10
2023-03-19T11:40:10.839Z,9.9
2023-03-19T11:42:10.828Z,9.8
2023-03-19T11:44:10.802Z,9.8
2023-03-19T11:46:10.905Z,9.8
2023-03-19T11:48:10.834Z,9.8
2023-03-19T11:50:10.766Z,9.9
2023-03-19T11:52:10.786Z,9.7
2023-03-19T11:54:10.811Z,9.7
2023-03-19T11:56:10.795Z,9.8
2023-03-19T11:58:10.820Z,9.7
2023-03-19T12:00:10.783Z,9.7
2023-03-19T12:02:10.780Z,9.8
2023-03-19T12:04:10.807Z,9.7
2023-03-19T12:06:10.777Z,9.7
2023-03-19T12:08:10.906Z,9.7
2023-03-19T12:10:10.763Z,9.7
2023-03-19T12:12:10.831Z,9.6
2023-03-19T12:14:10.788Z,9.6
2023-03-19T12:16:10.890Z,9.6
2023-03-19T12:18:10.774Z,9.9
2023-03-19T12:20:10.794Z,9.8
2023-03-19T12:22:10.780Z,9.9
2023-03-19T12:24:10.812Z,10
2023-03-19T12:26:10.733Z,10
2023-03-19T12:28:10.785Z,10
2023-03-19T12:30:10.744Z,9.9
2023-03-19T12:32:10.779Z,9.9
2023-03-19T12:34:11.080Z,10.1
2023-03-19T12:36:10.760Z,10.1
2023-03-19T12:38:10.788Z,10.1
2023-03-19T12:40:10.812Z,10.1
2023-03-19T12:42:10.814Z,10
2023-03-19T12:44:10.724Z,10.2
2023-03-19T12:46:10.790Z,10.3
2023-03-19T12:48:10.719Z,10.3
2023-03-19T12:50:10.781Z,10.4
2023-03-19T12:52:10.726Z,10.5
2023-03-19T12:54:11.093Z,10.4
2023-03-19T12:56:49.315Z,10.4
2023-03-19T12:58:04.235Z,10.2
2023-03-19T13:00:05.166Z,10.2
2023-03-19T13:02:04.438Z,10.1
2023-03-19T13:04:04.159Z,10.1
2023-03-19T13:06:04.093Z,10.4
2023-03-19T13:08:04.095Z,10.5
2023-03-19T13:10:04.103Z,10.5
2023-03-19T13:12:04.083Z,10.6
2023-03-19T13:14:04.092Z,10.4
2023-03-19T13:16:04.162Z,10.5
2023-03-19T13:18:04.164Z,10.5
2023-03-19T13:20:05.474Z,10.4
2023-03-19T13:22:04.090Z,10.5
2023-03-19T13:24:05.634Z,10.4
2023-03-19T13:26:04.121Z,10.4
2023-03-19T13:28:05.496Z,10.6
2023-03-19T13:30:04.089Z,10.7
2023-03-19T13:32:04.298Z,10.8
2023-03-19T13:34:04.208Z,10.8
2023-03-19T13:36:04.237Z,10.7
2023-03-19T13:38:04.056Z,10.9
2023-03-19T13:40:04.052Z,10.9
2023-03-19T13:42:04.062Z,11
2023-03-19T13:44:04.063Z,10.9
2023-03-19T13:46:04.055Z,11
2023-03-19T13:48:14.573Z,10.9
2023-03-19T13:50:04.047Z,10.8
2023-03-19T13:52:04.080Z,10.8
2023-03-19T13:54:07.002Z,10.9
2023-03-19T13:56:04.790Z,11.1
2023-03-19T13:58:05.444Z,10.9
2023-03-19T14:00:04.198Z,11
2023-03-19T14:02:04.212Z,11
2023-03-19T14:04:04.366Z,10.9
2023-03-19T14:06:04.138Z,11.2
2023-03-19T14:08:04.625Z,11
2023-03-19T14:10:04.093Z,11
2023-03-19T14:12:05.152Z,11.1
2023-03-19T14:14:04.066Z,11.1
2023-03-19T14:16:04.105Z,11.2
2023-03-19T14:18:06.657Z,11.4
2023-03-19T14:20:07.875Z,11.3
2023-03-19T14:22:05.898Z,11
2023-03-19T14:24:04.048Z,10.8
2023-03-19T14:26:04.030Z,10.8
2023-03-19T14:28:05.242Z,10.8
2023-03-19T14:30:05.576Z,11
2023-03-19T14:32:05.529Z,11
2023-03-19T14:34:05.862Z,10.8
2023-03-19T14:36:04.089Z,11
2023-03-19T14:38:14.299Z,11
2023-03-19T14:40:05.802Z,10.9
2023-03-19T14:42:04.082Z,11.2
2023-03-19T14:44:04.017Z,11
2023-03-19T14:46:05.706Z,10.9
2023-03-19T14:48:05.209Z,10.7
2023-03-19T14:50:15.952Z,10.8
2023-03-19T14:52:04.029Z,10.9
2023-03-19T14:54:08.310Z,11
2023-03-19T14:56:06.934Z,11
2023-03-19T14:58:03.980Z,11.1
2023-03-19T15:00:04.116Z,11.2
2023-03-19T15:02:04.121Z,11.2
2023-03-19T15:04:05.357Z,10.9
2023-03-19T15:06:09.614Z,10.8
2023-03-19T15:08:16.126Z,11
2023-03-19T15:10:06.366Z,10.9
2023-03-19T15:12:05.481Z,10.9
2023-03-19T15:14:12.888Z,11
2023-03-19T15:16:05.184Z,11.1
2023-03-19T15:18:08.109Z,11.2
2023-03-19T15:19:20.096Z,11.2
2023-03-19T15:20:03.956Z,11.1
2023-03-19T15:22:05.367Z,11.1
2023-03-19T15:24:03.942Z,11.1
2023-03-19T15:26:04.131Z,11
2023-03-19T15:28:05.612Z,11
2023-03-19T15:30:14.152Z,11.1
2023-03-19T15:32:48.166Z,11.4
2023-03-19T15:32:58.754Z,11.5
2023-03-19T15:34:37.431Z,11.4
2023-03-19T15:36:37.313Z,11.3
2023-03-19T15:38:37.330Z,11.1
2023-03-19T15:40:37.532Z,11.1
2023-03-19T15:42:37.291Z,11.4
2023-03-19T15:44:37.282Z,11.6
2023-03-19T15:46:37.377Z,11.7
2023-03-19T15:48:37.258Z,11.6
2023-03-19T15:50:37.352Z,11.7
2023-03-19T15:52:37.278Z,11.5
2023-03-19T15:54:37.256Z,11.7
2023-03-19T15:56:37.248Z,11.7
2023-03-19T15:58:37.290Z,11.7
2023-03-19T16:00:39.870Z,11.8
2023-03-19T16:02:37.274Z,11.5
2023-03-19T16:04:56.077Z,11.5
2023-03-19T16:06:37.315Z,11.9
2023-03-19T16:08:37.263Z,11.8
2023-03-19T16:10:37.573Z,11.5
2023-03-19T16:12:37.264Z,11.7
2023-03-19T16:14:37.264Z,11.8
2023-03-19T16:16:37.289Z,11.6
2023-03-19T16:18:37.283Z,11.9
2023-03-19T16:20:37.983Z,11.5
2023-03-19T16:22:37.308Z,11.7
2023-03-19T16:24:37.212Z,11.8
2023-03-19T16:26:37.253Z,11.9
2023-03-19T16:28:37.210Z,11.8
2023-03-19T16:30:37.506Z,12.3
2023-03-19T16:32:37.266Z,12.5
2023-03-19T16:34:37.276Z,12.4
2023-03-19T16:36:37.249Z,12.2
2023-03-19T16:38:37.215Z,12.1
2023-03-19T16:40:37.225Z,12.4
2023-03-19T16:42:37.269Z,12.3
2023-03-19T16:44:37.223Z,12.4
2023-03-19T16:46:37.245Z,12.6
2023-03-19T16:48:37.208Z,12.9
2023-03-19T16:50:37.225Z,12.6
2023-03-19T16:52:37.256Z,12.8
2023-03-19T16:54:37.199Z,12.5
2023-03-19T16:56:37.227Z,12.7
2023-03-19T16:58:37.201Z,12.9
2023-03-19T17:00:37.223Z,12.9
2023-03-19T17:02:37.184Z,12.6
2023-03-19T17:04:37.200Z,12.3
2023-03-19T17:06:37.239Z,12.2
2023-03-19T17:08:37.228Z,12.1
2023-03-19T17:10:37.328Z,12.1
2023-03-19T17:12:37.212Z,12.2
2023-03-19T17:14:37.206Z,12.1
2023-03-19T17:16:37.139Z,12.1
2023-03-19T17:18:37.161Z,12.2
2023-03-19T17:20:37.136Z,12.4
2023-03-19T17:22:37.156Z,12.7
2023-03-19T17:24:37.136Z,12.5
2023-03-19T17:26:37.175Z,12.9
2023-03-19T17:28:37.175Z,13.2
2023-03-19T17:30:37.333Z,13.1
2023-03-19T17:32:37.182Z,13.2
2023-03-19T17:34:37.152Z,13.1
2023-03-19T17:36:37.126Z,13.2
2023-03-19T17:38:38.436Z,13
2023-03-19T17:40:37.187Z,13.1
2023-03-19T17:42:37.135Z,13.2
2023-03-19T17:44:37.125Z,13
2023-03-19T17:46:37.167Z,13
2023-03-19T17:48:37.150Z,13.3
2023-03-19T17:50:37.335Z,13.4
2023-03-19T17:52:37.113Z,13.4
2023-03-19T17:54:37.108Z,12.9
2023-03-19T17:56:37.099Z,12.8
2023-03-19T17:58:37.165Z,12.6
2023-03-19T18:00:37.448Z,12.6
2023-03-19T18:02:37.108Z,12.9
2023-03-19T18:04:37.146Z,12.9
2023-03-19T18:06:37.204Z,12.9
2023-03-19T18:08:37.116Z,13
2023-03-19T18:10:37.369Z,12.9
2023-03-19T18:12:37.086Z,12.9
2023-03-19T18:14:37.074Z,12.9
2023-03-19T18:16:37.096Z,12.8
2023-03-19T18:18:37.083Z,12.9
2023-03-19T18:20:37.495Z,12.8
2023-03-19T18:22:37.090Z,12.8
2023-03-19T18:24:37.082Z,12.7
2023-03-19T18:26:37.096Z,12.7
2023-03-19T18:28:37.093Z,12.6
2023-03-19T18:30:37.386Z,12.7
2023-03-19T18:32:37.158Z,12.9
2023-03-19T18:34:37.099Z,12.9
2023-03-19T18:36:37.047Z,13
2023-03-19T18:38:37.061Z,13
2023-03-19T18:40:37.234Z,13
2023-03-19T18:42:37.068Z,13.1
2023-03-19T18:44:37.065Z,13
2023-03-19T18:46:37.061Z,13.1
2023-03-19T18:48:37.064Z,13.2
2023-03-19T18:50:37.344Z,13.2
2023-03-19T18:52:37.035Z,12.9
2023-03-19T18:54:37.049Z,13
2023-03-19T18:56:37.034Z,12.8
2023-03-19T18:58:37.015Z,12.8
2023-03-19T19:00:37.244Z,12.7
2023-03-19T19:02:37.014Z,12.7
2023-03-19T19:04:37.065Z,13
2023-03-19T19:06:47.151Z,13
2023-03-19T19:08:37.042Z,12.7
2023-03-19T19:10:37.254Z,13
2023-03-19T19:12:37.021Z,13.1
2023-03-19T19:14:37.082Z,13.2
2023-03-19T19:16:37.059Z,13
2023-03-19T19:18:38.416Z,13
2023-03-19T19:20:37.256Z,13
2023-03-19T19:22:36.981Z,12.9
2023-03-19T19:24:37.062Z,12.9
2023-03-19T19:26:36.992Z,13.1
2023-03-19T19:28:39.276Z,13.1
2023-03-19T19:30:37.313Z,13
2023-03-19T19:32:37.020Z,12.9
2023-03-19T19:34:36.985Z,13.2
2023-03-19T19:36:36.977Z,13.3
2023-03-19T19:38:37.001Z,13
2023-03-19T19:40:37.277Z,13.3
2023-03-19T19:42:36.993Z,13.2
2023-03-19T19:44:36.993Z,13
2023-03-19T19:46:36.993Z,13.1
2023-03-19T19:48:36.995Z,13.2
2023-03-19T19:50:36.989Z,13.3
2023-03-19T19:52:36.994Z,13.2
2023-03-19T19:54:36.946Z,13
2023-03-19T19:56:36.977Z,13.1
2023-03-19T19:58:37.002Z,13.1
2023-03-19T20:00:36.979Z,13.1
2023-03-19T20:02:36.973Z,13.3
2023-03-19T20:04:36.975Z,13.2
2023-03-19T20:06:36.961Z,13.1
2023-03-19T20:08:36.950Z,13.1
2023-03-19T20:10:36.960Z,12.9
2023-03-19T20:12:36.975Z,13.1
2023-03-19T20:14:36.929Z,13.1
2023-03-19T20:16:37.022Z,13.3
2023-03-19T20:18:36.923Z,13.3
2023-03-19T20:20:36.970Z,13.1
2023-03-19T20:22:36.993Z,13.2
2023-03-19T20:24:36.923Z,13.3
2023-03-19T20:26:36.921Z,13.2
2023-03-19T20:28:36.944Z,13.1
2023-03-19T20:30:36.914Z,13.2
2023-03-19T20:32:36.984Z,13.2
2023-03-19T20:34:39.549Z,13.3
2023-03-19T20:36:36.922Z,13.3
2023-03-19T20:38:36.922Z,13.3
2023-03-19T20:40:36.918Z,13.3
2023-03-19T20:42:36.888Z,13.2
2023-03-19T20:44:36.909Z,13.1
2023-03-19T20:46:36.941Z,13
2023-03-19T20:48:36.894Z,13
2023-03-19T20:50:37.000Z,13.2
2023-03-19T20:52:36.993Z,13.3
2023-03-19T20:54:38.195Z,13.1
2023-03-19T20:56:36.860Z,13.2
2023-03-19T20:58:37.055Z,13.2
2023-03-19T21:00:36.874Z,13.4
2023-03-19T21:02:36.976Z,13.2
2023-03-19T21:04:36.850Z,13.3
2023-03-19T21:06:50.052Z,13.2
2023-03-19T21:08:36.873Z,13.1
2023-03-19T21:10:36.878Z,12.9
2023-03-19T21:12:36.925Z,12.9
2023-03-19T21:14:36.855Z,12.8
2023-03-19T21:16:36.905Z,13
2023-03-19T21:18:36.880Z,13
2023-03-19T21:20:36.878Z,12.8
2023-03-19T21:22:36.851Z,12.8
2023-03-19T21:24:36.937Z,12.9
2023-03-19T21:26:36.833Z,12.9
2023-03-19T21:28:36.863Z,12.6
2023-03-19T21:30:36.864Z,12.7
2023-03-19T21:32:36.897Z,12.4
2023-03-19T21:34:36.843Z,12.4
2023-03-19T21:36:36.872Z,12.7
2023-03-19T21:38:36.889Z,12.5
2023-03-19T21:40:36.815Z,12.5
2023-03-19T21:42:36.834Z,12.4
2023-03-19T21:44:36.858Z,12.3
2023-03-19T21:46:36.860Z,12.2
2023-03-19T21:48:36.814Z,12.4
2023-03-19T21:50:36.809Z,12.2
2023-03-19T21:52:50.006Z,12.1
2023-03-19T21:54:36.854Z,12.2
2023-03-19T21:56:36.885Z,12.3
2023-03-19T21:58:36.943Z,12
2023-03-19T22:00:36.835Z,12
2023-03-19T22:02:36.784Z,12
2023-03-19T22:04:36.801Z,12
2023-03-19T22:06:36.775Z,11.9
2023-03-19T22:08:36.777Z,11.8
2023-03-19T22:10:36.844Z,11.8
2023-03-19T22:12:36.786Z,11.7
2023-03-19T22:14:36.880Z,11.8
2023-03-19T22:16:36.813Z,11.6
2023-03-19T22:18:37.098Z,11.7
2023-03-19T22:20:36.800Z,11.6
2023-03-19T22:22:36.763Z,11.5
2023-03-19T22:24:36.807Z,11.4
2023-03-19T22:26:36.757Z,11.7
2023-03-19T22:28:36.837Z,11.5
2023-03-19T22:30:36.792Z,11.4
2023-03-19T22:32:36.766Z,11.2
2023-03-19T22:34:36.778Z,11.1
2023-03-19T22:36:36.823Z,11
2023-03-19T22:38:36.753Z,10.9
2023-03-19T22:40:36.776Z,10.8
2023-03-19T22:42:36.783Z,10.6
2023-03-19T22:44:36.810Z,10.6
2023-03-19T22:46:36.756Z,10.6
2023-03-19T22:48:36.731Z,10.5
2023-03-19T22:50:36.775Z,10.4
2023-03-19T22:52:36.779Z,10.3
2023-03-19T22:54:36.901Z,10.3
2023-03-19T22:56:36.727Z,10.3
2023-03-19T22:58:36.726Z,10.2
2023-03-19T23:00:36.743Z,10.1
2023-03-19T23:02:36.753Z,10.1
2023-03-19T23:04:36.834Z,10
2023-03-19T23:06:36.734Z,10.1
2023-03-19T23:08:36.725Z,9.9
2023-03-19T23:10:36.727Z,9.9
2023-03-19T23:12:36.861Z,9.8
2023-03-19T23:14:36.721Z,9.7
2023-03-19T23:16:36.765Z,9.7
2023-03-19T23:18:36.906Z,9.6
2023-03-19T23:20:36.836Z,9.5
2023-03-19T23:22:36.716Z,9.4
2023-03-19T23:24:36.697Z,9.4
2023-03-19T23:26:36.764Z,9.4
2023-03-19T23:28:36.708Z,9.3
2023-03-19T23:30:36.713Z,9.2
2023-03-19T23:32:36.727Z,9.1
2023-03-19T23:34:45.946Z,9.1
2023-03-19T23:36:36.703Z,9.1
2023-03-19T23:38:36.695Z,9
2023-03-19T23:40:36.733Z,9
2023-03-19T23:42:36.689Z,8.9
2023-03-19T23:44:36.669Z,8.9
2023-03-19T23:46:36.725Z,8.9
2023-03-19T23:48:36.658Z,8.8
2023-03-19T23:50:36.667Z,8.7
2023-03-19T23:52:36.664Z,8.6
2023-03-19T23:54:36.698Z,8.6
2023-03-19T23:56:36.665Z,8.6
2023-03-19T23:58:36.722Z,8.5
